createdAt,value
2022-08-31T00:02:39.028Z,16.01
2022-08-31T00:05:06.404Z,15.85
2022-08-31T00:07:34.945Z,15.95
2022-08-31T00:10:13.893Z,15.91
2022-08-31T00:12:42.284Z,15.85
2022-08-31T00:15:10.091Z,15.86
2022-08-31T00:17:36.579Z,15.83
2022-08-31T00:20:32.315Z,15.85
2022-08-31T00:23:02.171Z,15.74
2022-08-31T00:25:28.704Z,15.67
2022-08-31T00:27:55.845Z,15.67
2022-08-31T00:30:23.314Z,15.65
2022-08-31T00:32:49.736Z,15.68
2022-08-31T00:35:17.069Z,15.67
2022-08-31T00:37:43.477Z,15.65
2022-08-31T00:40:10.507Z,15.62
2022-08-31T00:42:36.988Z,15.64
2022-08-31T00:45:04.695Z,15.62
2022-08-31T00:47:31.938Z,15.58
2022-08-31T00:50:00.084Z,15.49
2022-08-31T00:52:35.547Z,15.50
2022-08-31T00:55:35.324Z,15.47
2022-08-31T00:58:07.787Z,15.39
2022-08-31T01:00:35.159Z,15.40
2022-08-31T01:03:03.862Z,15.42
2022-08-31T01:05:31.340Z,15.39
2022-08-31T01:08:00.511Z,15.31
2022-08-31T01:10:31.696Z,15.15
2022-08-31T01:12:58.599Z,15.21
2022-08-31T01:15:26.749Z,15.10
2022-08-31T01:17:57.009Z,15.00
2022-08-31T01:20:26.108Z,15.09
2022-08-31T01:23:06.171Z,14.93
2022-08-31T01:25:35.154Z,15.07
2022-08-31T01:28:05.342Z,15.01
2022-08-31T01:30:32.450Z,15.04
2022-08-31T01:32:59.288Z,14.93
2022-08-31T01:35:26.444Z,14.85
2022-08-31T01:37:53.752Z,14.97
2022-08-31T01:40:20.488Z,14.88
2022-08-31T01:42:47.097Z,14.75
2022-08-31T01:45:14.768Z,14.74
2022-08-31T01:47:41.535Z,14.74
2022-08-31T01:50:09.022Z,14.68
2022-08-31T01:52:37.852Z,14.75
2022-08-31T01:55:06.942Z,14.79
2022-08-31T01:57:34.712Z,14.74
2022-08-31T02:00:20.190Z,14.72
2022-08-31T02:02:47.245Z,14.88
2022-08-31T02:05:14.488Z,14.93
2022-08-31T02:07:41.905Z,14.93
2022-08-31T02:10:09.407Z,14.93
2022-08-31T02:12:35.901Z,14.95
2022-08-31T02:15:02.573Z,14.93
2022-08-31T02:17:29.019Z,14.84
2022-08-31T02:19:55.680Z,14.74
2022-08-31T02:22:22.123Z,14.77
2022-08-31T02:24:48.570Z,14.84
2022-08-31T02:27:16.648Z,14.71
2022-08-31T02:29:43.949Z,14.77
2022-08-31T02:32:20.233Z,14.73
2022-08-31T02:34:48.556Z,14.81
2022-08-31T02:37:15.690Z,14.84
2022-08-31T02:39:44.031Z,14.96
2022-08-31T02:42:11.084Z,15.03
2022-08-31T02:44:37.604Z,15.03
2022-08-31T02:47:04.247Z,15.04
2022-08-31T02:49:38.886Z,15.06
2022-08-31T02:52:05.351Z,15.05
2022-08-31T02:54:32.006Z,15.02
2022-08-31T02:56:58.751Z,14.99
2022-08-31T02:59:25.190Z,15.04
2022-08-31T03:01:52.854Z,15.02
2022-08-31T03:04:19.450Z,15.06
2022-08-31T03:06:47.740Z,15.12
2022-08-31T03:09:15.906Z,15.19
2022-08-31T03:11:42.986Z,15.23
2022-08-31T03:14:09.511Z,15.24
2022-08-31T03:16:39.362Z,15.24
2022-08-31T03:19:07.078Z,15.22
2022-08-31T03:21:33.711Z,15.19
2022-08-31T03:24:00.171Z,15.20
2022-08-31T03:26:27.688Z,15.14
2022-08-31T03:28:55.862Z,15.12
2022-08-31T03:31:40.717Z,15.12
2022-08-31T03:34:07.275Z,15.10
2022-08-31T03:36:33.775Z,15.08
2022-08-31T03:39:00.207Z,15.08
2022-08-31T03:41:26.882Z,15.02
2022-08-31T03:43:55.218Z,14.99
2022-08-31T03:46:21.739Z,14.99
2022-08-31T03:48:48.640Z,14.96
2022-08-31T03:51:16.611Z,14.92
2022-08-31T03:53:43.158Z,14.89
2022-08-31T03:56:15.897Z,14.90
2022-08-31T03:58:42.360Z,14.77
2022-08-31T04:01:13.709Z,14.70
2022-08-31T04:04:02.166Z,14.65
2022-08-31T04:06:47.086Z,14.61
2022-08-31T04:09:39.742Z,14.49
2022-08-31T04:12:34.888Z,14.47
2022-08-31T04:15:10.681Z,14.49
2022-08-31T04:18:06.599Z,14.45
2022-08-31T04:20:47.473Z,14.44
2022-08-31T04:23:14.002Z,14.46
2022-08-31T04:25:49.654Z,14.49
2022-08-31T04:28:16.093Z,14.51
2022-08-31T04:30:44.603Z,14.51
2022-08-31T04:33:14.828Z,14.44
2022-08-31T04:35:42.337Z,14.40
2022-08-31T04:38:10.142Z,14.39
2022-08-31T04:40:38.708Z,14.30
2022-08-31T04:43:06.478Z,14.35
2022-08-31T04:45:33.121Z,14.32
2022-08-31T04:47:59.603Z,14.39
2022-08-31T04:50:26.063Z,14.38
2022-08-31T04:53:08.288Z,14.39
2022-08-31T04:55:39.979Z,14.32
2022-08-31T04:58:06.918Z,14.33
2022-08-31T05:00:35.383Z,14.39
2022-08-31T05:03:19.857Z,14.53
2022-08-31T05:05:52.263Z,14.63
2022-08-31T05:08:19.447Z,14.80
2022-08-31T05:10:46.407Z,14.90
2022-08-31T05:13:13.507Z,15.03
2022-08-31T05:15:42.288Z,15.19
2022-08-31T05:18:09.918Z,15.28
2022-08-31T05:20:41.179Z,15.35
2022-08-31T05:23:08.622Z,15.43
2022-08-31T05:25:38.943Z,15.68
2022-08-31T05:28:05.377Z,15.80
2022-08-31T05:30:31.899Z,15.89
2022-08-31T05:33:04.776Z,16.06
2022-08-31T05:35:31.606Z,16.23
2022-08-31T05:37:58.037Z,16.33
2022-08-31T05:40:24.633Z,16.46
2022-08-31T05:42:51.150Z,16.50
2022-08-31T05:45:18.968Z,16.65
2022-08-31T05:47:47.039Z,16.80
2022-08-31T05:50:13.527Z,16.90
2022-08-31T05:52:41.701Z,17.06
2022-08-31T05:55:08.855Z,17.22
2022-08-31T05:57:35.346Z,17.27
2022-08-31T06:00:01.799Z,17.41
2022-08-31T06:02:29.397Z,17.50
2022-08-31T06:04:57.698Z,17.60
2022-08-31T06:07:24.379Z,17.75
2022-08-31T06:09:55.642Z,17.82
2022-08-31T06:12:25.800Z,17.85
2022-08-31T06:14:55.314Z,18.03
2022-08-31T06:17:21.820Z,18.06
2022-08-31T06:19:50.051Z,18.23
2022-08-31T06:22:17.289Z,18.40
2022-08-31T06:24:44.305Z,18.43
2022-08-31T06:27:10.757Z,18.51
2022-08-31T06:29:37.599Z,18.58
2022-08-31T06:32:10.074Z,18.53
2022-08-31T06:34:42.702Z,18.59
2022-08-31T06:37:21.303Z,18.69
2022-08-31T06:40:15.586Z,18.58
2022-08-31T06:42:56.012Z,18.74
2022-08-31T06:45:31.943Z,18.89
2022-08-31T06:48:17.817Z,19.12
2022-08-31T06:50:44.392Z,19.24
2022-08-31T06:53:10.888Z,19.64
2022-08-31T06:56:20.151Z,19.81
2022-08-31T06:59:13.697Z,19.78
2022-08-31T07:01:54.930Z,19.74
2022-08-31T07:04:34.629Z,19.90
2022-08-31T07:07:01.760Z,20.18
2022-08-31T07:09:28.579Z,20.36
2022-08-31T07:11:55.095Z,20.60
2022-08-31T07:14:24.426Z,20.85
2022-08-31T07:16:54.772Z,20.62
2022-08-31T07:19:22.017Z,20.82
2022-08-31T07:21:54.640Z,20.99
2022-08-31T07:24:25.631Z,21.12
2022-08-31T07:26:58.068Z,21.12
2022-08-31T07:29:34.056Z,21.11
2022-08-31T07:32:00.596Z,21.17
2022-08-31T07:34:30.233Z,21.12
2022-08-31T07:37:33.407Z,20.96
2022-08-31T07:40:18.370Z,21.11
2022-08-31T07:42:46.977Z,21.11
2022-08-31T07:45:27.955Z,21.19
2022-08-31T07:47:59.648Z,21.44
2022-08-31T07:50:31.527Z,21.48
2022-08-31T07:53:19.224Z,21.71
2022-08-31T07:56:00.527Z,21.73
2022-08-31T07:58:47.718Z,21.64
2022-08-31T08:01:15.011Z,21.54
2022-08-31T08:03:43.998Z,21.61
2022-08-31T08:06:45.294Z,21.74
2022-08-31T08:09:28.177Z,21.78
2022-08-31T08:12:06.397Z,21.63
2022-08-31T08:14:58.929Z,21.59
2022-08-31T08:17:36.920Z,21.63
2022-08-31T08:20:11.648Z,21.50
2022-08-31T08:22:54.211Z,21.66
2022-08-31T08:25:34.795Z,21.72
2022-08-31T08:28:43.340Z,21.75
2022-08-31T08:31:15.672Z,21.72
2022-08-31T08:33:43.473Z,22.07
2022-08-31T08:36:10.121Z,22.18
2022-08-31T08:38:41.055Z,22.11
2022-08-31T08:41:14.043Z,22.06
2022-08-31T08:43:44.262Z,21.99
2022-08-31T08:46:34.543Z,21.95
2022-08-31T08:49:13.091Z,21.90
2022-08-31T08:51:39.901Z,21.98
2022-08-31T08:54:13.946Z,22.07
2022-08-31T08:56:47.070Z,22.07
2022-08-31T08:59:19.977Z,22.20
2022-08-31T09:01:52.967Z,22.33
2022-08-31T09:04:44.117Z,22.39
2022-08-31T09:07:59.714Z,22.39
2022-08-31T09:10:33.460Z,22.30
2022-08-31T09:13:30.174Z,22.29
2022-08-31T09:16:22.364Z,22.28
2022-08-31T09:18:55.109Z,22.16
2022-08-31T09:21:31.205Z,22.17
2022-08-31T09:24:02.562Z,22.45
2022-08-31T09:27:17.791Z,22.44
2022-08-31T09:29:58.407Z,22.36
2022-08-31T09:32:32.231Z,22.36
2022-08-31T09:35:09.113Z,22.38
2022-08-31T09:37:48.762Z,22.65
2022-08-31T09:40:23.675Z,22.50
2022-08-31T09:43:07.618Z,22.59
2022-08-31T09:45:41.225Z,22.62
2022-08-31T09:48:08.932Z,22.71
2022-08-31T09:50:46.849Z,22.80
2022-08-31T09:54:00.162Z,22.77
2022-08-31T09:56:27.695Z,22.65
2022-08-31T09:59:01.684Z,22.83
2022-08-31T10:01:43.012Z,22.64
2022-08-31T10:04:27.097Z,22.55
2022-08-31T10:07:11.256Z,22.68
2022-08-31T10:09:57.723Z,22.58
2022-08-31T10:12:39.458Z,22.64
2022-08-31T10:15:45.059Z,22.58
2022-08-31T10:18:28.729Z,22.58
2022-08-31T10:21:09.065Z,22.56
2022-08-31T10:23:42.852Z,22.48
2022-08-31T10:26:18.794Z,22.40
2022-08-31T10:28:51.476Z,22.43
2022-08-31T10:31:29.986Z,22.61
2022-08-31T10:34:30.678Z,22.66
2022-08-31T10:37:12.488Z,22.77
2022-08-31T10:39:48.688Z,22.74
2022-08-31T10:42:25.670Z,22.93
2022-08-31T10:45:03.424Z,23.02
2022-08-31T10:47:34.055Z,22.85
2022-08-31T10:50:03.443Z,22.98
2022-08-31T10:52:56.599Z,23.04
2022-08-31T10:55:36.110Z,23.00
2022-08-31T10:58:17.563Z,23.00
2022-08-31T11:01:00.632Z,23.15
2022-08-31T11:03:59.814Z,23.41
2022-08-31T11:06:44.979Z,23.66
2022-08-31T11:09:22.607Z,23.43
2022-08-31T11:12:04.933Z,23.43
2022-08-31T11:14:45.412Z,23.27
2022-08-31T11:17:40.994Z,23.29
2022-08-31T11:20:25.459Z,23.18
2022-08-31T11:23:05.525Z,23.38
2022-08-31T11:26:07.060Z,23.41
2022-08-31T11:28:42.810Z,23.64
2022-08-31T11:31:23.585Z,23.63
2022-08-31T11:34:15.115Z,23.44
2022-08-31T11:36:56.519Z,23.28
2022-08-31T11:39:35.532Z,23.45
2022-08-31T11:42:28.292Z,23.39
2022-08-31T11:45:05.522Z,23.32
2022-08-31T11:47:35.556Z,23.26
2022-08-31T11:50:10.217Z,23.37
2022-08-31T11:52:36.999Z,23.72
2022-08-31T11:55:28.417Z,23.29
2022-08-31T11:58:07.197Z,23.61
2022-08-31T12:00:52.270Z,23.62
2022-08-31T12:03:38.933Z,23.33
2022-08-31T12:06:10.483Z,23.43
2022-08-31T12:08:52.254Z,23.30
2022-08-31T12:11:49.605Z,23.35
2022-08-31T12:14:34.781Z,22.81
2022-08-31T12:17:21.264Z,22.74
2022-08-31T12:20:09.078Z,23.39
2022-08-31T12:23:24.437Z,23.61
2022-08-31T12:26:24.896Z,23.62
2022-08-31T12:29:09.989Z,23.37
2022-08-31T12:31:39.785Z,23.27
2022-08-31T12:34:18.057Z,23.25
2022-08-31T12:36:45.033Z,23.30
2022-08-31T12:39:25.759Z,23.41
2022-08-31T12:42:02.726Z,23.38
2022-08-31T12:44:33.127Z,23.37
2022-08-31T12:47:05.849Z,23.16
2022-08-31T12:50:06.600Z,23.10
2022-08-31T12:52:40.675Z,23.53
2022-08-31T12:55:34.563Z,23.71
2022-08-31T12:58:17.378Z,23.10
2022-08-31T13:00:45.374Z,23.09
2022-08-31T13:03:24.238Z,22.88
2022-08-31T13:06:13.716Z,22.80
2022-08-31T13:08:49.898Z,22.59
2022-08-31T13:11:24.528Z,22.63
2022-08-31T13:13:53.157Z,22.79
2022-08-31T13:16:20.437Z,23.01
2022-08-31T13:18:47.651Z,23.23
2022-08-31T13:21:21.898Z,23.53
2022-08-31T13:23:48.816Z,23.53
2022-08-31T13:26:23.033Z,23.51
2022-08-31T13:28:58.753Z,23.31
2022-08-31T13:31:35.533Z,23.34
2022-08-31T13:34:07.237Z,23.51
2022-08-31T13:36:40.151Z,23.78
2022-08-31T13:39:21.900Z,23.56
2022-08-31T13:42:03.126Z,23.32
2022-08-31T13:44:39.191Z,23.39
2022-08-31T13:47:19.229Z,23.47
2022-08-31T13:49:48.025Z,23.56
2022-08-31T13:52:26.081Z,23.49
2022-08-31T13:55:01.709Z,23.46
2022-08-31T13:57:32.863Z,23.29
2022-08-31T14:00:26.374Z,23.27
2022-08-31T14:02:54.015Z,23.14
2022-08-31T14:05:30.686Z,23.27
2022-08-31T14:08:02.290Z,23.17
2022-08-31T14:10:36.791Z,23.12
2022-08-31T14:13:13.863Z,23.08
2022-08-31T14:15:56.264Z,23.12
2022-08-31T14:18:37.694Z,23.05
2022-08-31T14:21:20.462Z,23.27
2022-08-31T14:23:54.014Z,23.35
2022-08-31T14:26:26.093Z,23.31
2022-08-31T14:28:55.986Z,23.38
2022-08-31T14:31:32.702Z,23.33
2022-08-31T14:34:09.500Z,23.38
2022-08-31T14:36:44.638Z,23.25
2022-08-31T14:39:11.605Z,23.28
2022-08-31T14:41:38.242Z,23.20
2022-08-31T14:44:10.038Z,23.15
2022-08-31T14:46:41.749Z,23.27
2022-08-31T14:49:09.609Z,23.36
2022-08-31T14:51:39.131Z,23.11
2022-08-31T14:54:08.977Z,23.28
2022-08-31T14:56:39.842Z,23.42
2022-08-31T14:59:12.458Z,23.36
2022-08-31T15:01:40.187Z,23.27
2022-08-31T15:04:06.769Z,23.36
2022-08-31T15:06:33.915Z,23.21
2022-08-31T15:09:04.550Z,23.14
2022-08-31T15:11:35.303Z,23.21
2022-08-31T15:14:05.252Z,23.10
2022-08-31T15:16:32.069Z,23.00
2022-08-31T15:18:59.144Z,23.03
2022-08-31T15:21:26.542Z,23.11
2022-08-31T15:23:52.984Z,23.19
2022-08-31T15:26:21.520Z,23.24
2022-08-31T15:28:52.441Z,23.25
2022-08-31T15:31:23.585Z,23.20
2022-08-31T15:33:55.310Z,23.28
2022-08-31T15:36:24.938Z,23.13
2022-08-31T15:38:55.448Z,22.90
2022-08-31T15:41:23.088Z,22.73
2022-08-31T15:43:51.471Z,22.76
2022-08-31T15:46:39.742Z,22.82
2022-08-31T15:49:09.705Z,22.82
2022-08-31T15:51:50.192Z,22.73
2022-08-31T15:54:22.535Z,23.01
2022-08-31T15:56:55.511Z,23.17
2022-08-31T15:59:22.882Z,23.11
2022-08-31T16:01:51.432Z,23.33
2022-08-31T16:04:23.590Z,23.19
2022-08-31T16:06:52.069Z,23.24
2022-08-31T16:09:20.561Z,23.27
2022-08-31T16:11:48.351Z,23.16
2022-08-31T16:14:16.367Z,23.43
2022-08-31T16:16:45.366Z,23.47
2022-08-31T16:19:27.751Z,23.24
2022-08-31T16:22:00.249Z,23.09
2022-08-31T16:24:26.743Z,22.98
2022-08-31T16:26:56.470Z,22.94
2022-08-31T16:29:25.128Z,23.03
2022-08-31T16:31:51.641Z,23.04
2022-08-31T16:34:19.681Z,22.97
2022-08-31T16:36:49.969Z,22.92
2022-08-31T16:39:18.007Z,22.97
2022-08-31T16:41:45.759Z,22.97
2022-08-31T16:44:19.918Z,22.65
2022-08-31T16:46:46.764Z,22.67
2022-08-31T16:49:31.823Z,22.52
2022-08-31T16:51:58.336Z,22.47
2022-08-31T16:54:27.758Z,22.34
2022-08-31T16:56:57.621Z,22.22
2022-08-31T16:59:31.318Z,22.14
2022-08-31T17:01:58.379Z,22.15
2022-08-31T17:07:16.230Z,21.96
2022-08-31T17:09:43.890Z,21.73
2022-08-31T17:12:13.906Z,21.69
2022-08-31T17:14:47.192Z,21.65
2022-08-31T17:17:17.299Z,21.61
2022-08-31T17:19:45.677Z,21.63
2022-08-31T17:22:23.264Z,21.60
2022-08-31T17:24:56.546Z,21.46
2022-08-31T17:27:24.949Z,21.43
2022-08-31T17:29:53.909Z,21.40
2022-08-31T17:32:23.421Z,21.30
2022-08-31T17:34:51.451Z,21.36
2022-08-31T17:37:21.477Z,21.30
2022-08-31T17:39:50.611Z,21.24
2022-08-31T17:42:20.942Z,21.05
2022-08-31T17:44:50.323Z,21.02
2022-08-31T17:47:18.252Z,20.91
2022-08-31T17:49:46.711Z,20.81
2022-08-31T17:52:13.604Z,20.94
2022-08-31T17:54:43.197Z,20.96
2022-08-31T17:57:12.945Z,20.90
2022-08-31T17:59:42.490Z,20.91
2022-08-31T18:02:12.615Z,20.66
2022-08-31T18:04:40.251Z,20.73
2022-08-31T18:07:09.052Z,20.67
2022-08-31T18:09:39.422Z,20.74
2022-08-31T18:12:06.693Z,20.62
2022-08-31T18:14:34.326Z,20.52
2022-08-31T18:17:03.026Z,20.51
2022-08-31T18:19:29.949Z,20.45
2022-08-31T18:21:56.621Z,20.43
2022-08-31T18:24:23.350Z,20.40
2022-08-31T18:26:51.573Z,20.26
2022-08-31T18:29:23.916Z,20.23
2022-08-31T18:31:53.888Z,20.18
2022-08-31T18:34:23.336Z,20.20
2022-08-31T18:36:51.729Z,20.15
2022-08-31T18:39:34.774Z,20.17
2022-08-31T18:42:35.611Z,20.10
2022-08-31T18:45:18.505Z,20.03
2022-08-31T18:50:44.399Z,19.86
2022-08-31T18:53:15.063Z,19.80
2022-08-31T18:55:43.834Z,19.79
2022-08-31T18:58:10.423Z,19.70
2022-08-31T19:00:37.406Z,19.71
2022-08-31T19:03:04.512Z,19.58
2022-08-31T19:05:32.612Z,19.52
2022-08-31T19:08:00.464Z,19.47
2022-08-31T19:10:27.895Z,19.46
2022-08-31T19:12:55.736Z,19.37
2022-08-31T19:15:25.551Z,19.36
2022-08-31T19:18:01.896Z,19.27
2022-08-31T19:20:29.315Z,19.16
2022-08-31T19:22:56.092Z,19.08
2022-08-31T19:25:23.032Z,19.10
2022-08-31T19:27:51.875Z,19.01
2022-08-31T19:30:24.458Z,19.00
2022-08-31T19:32:53.503Z,18.88
2022-08-31T19:35:20.254Z,18.83
2022-08-31T19:37:47.309Z,18.81
2022-08-31T19:40:17.884Z,18.75
2022-08-31T19:43:42.379Z,18.69
2022-08-31T19:45:42.842Z,18.59
2022-08-31T19:48:10.050Z,18.53
2022-08-31T19:50:41.610Z,18.42
2022-08-31T19:53:12.522Z,18.35
2022-08-31T19:55:50.137Z,18.31
2022-08-31T19:58:18.355Z,18.20
2022-08-31T20:00:44.942Z,18.13
2022-08-31T20:03:15.365Z,18.09
2022-08-31T20:05:43.456Z,17.97
2022-08-31T20:08:10.663Z,17.92
2022-08-31T20:10:42.116Z,17.93
2022-08-31T20:13:10.004Z,17.90
2022-08-31T20:15:41.866Z,17.71
2022-08-31T20:18:11.223Z,17.70
2022-08-31T20:20:48.242Z,17.67
2022-08-31T20:23:17.049Z,17.69
2022-08-31T20:25:45.442Z,17.68
2022-08-31T20:28:12.871Z,17.66
2022-08-31T20:30:41.530Z,17.69
2022-08-31T20:33:10.618Z,17.52
2022-08-31T20:35:47.474Z,17.61
2022-08-31T20:38:16.400Z,17.54
2022-08-31T20:40:44.794Z,17.52
2022-08-31T20:43:12.778Z,17.53
2022-08-31T20:45:41.372Z,17.55
2022-08-31T20:48:26.978Z,17.45
2022-08-31T20:50:53.591Z,17.41
2022-08-31T20:53:26.386Z,17.41
2022-08-31T20:56:07.953Z,17.41
2022-08-31T20:58:34.724Z,17.28
2022-08-31T21:01:05.956Z,17.31
2022-08-31T21:03:33.399Z,17.21
2022-08-31T21:06:08.210Z,17.20
2022-08-31T21:08:38.223Z,17.19
2022-08-31T21:11:15.766Z,17.20
2022-08-31T21:13:42.808Z,17.16
2022-08-31T21:16:09.853Z,17.11
2022-08-31T21:18:37.388Z,17.05
2022-08-31T21:21:07.319Z,17.05
2022-08-31T21:23:36.505Z,17.00
2022-08-31T21:26:04.887Z,17.02
2022-08-31T21:28:31.326Z,16.99
2022-08-31T21:31:15.779Z,16.96
2022-08-31T21:33:46.255Z,16.94
2022-08-31T21:36:15.489Z,16.90
2022-08-31T21:38:43.506Z,16.85
2022-08-31T21:41:11.631Z,16.84
2022-08-31T21:43:38.740Z,16.81
2022-08-31T21:46:14.391Z,16.80
2022-08-31T21:48:43.191Z,16.76
2022-08-31T21:51:21.265Z,16.74
2022-08-31T21:53:53.837Z,16.69
2022-08-31T21:56:22.598Z,16.62
2022-08-31T21:58:49.971Z,16.67
2022-08-31T22:01:20.362Z,16.66
2022-08-31T22:03:48.855Z,16.64
2022-08-31T22:06:22.180Z,16.64
2022-08-31T22:09:00.196Z,16.61
2022-08-31T22:11:30.551Z,16.63
2022-08-31T22:13:59.145Z,16.72
2022-08-31T22:16:27.051Z,16.72
2022-08-31T22:19:01.666Z,16.76
2022-08-31T22:21:32.248Z,16.81
2022-08-31T22:24:01.983Z,16.82
2022-08-31T22:26:30.312Z,16.88
2022-08-31T22:28:56.967Z,16.88
2022-08-31T22:31:25.164Z,16.95
2022-08-31T22:33:52.022Z,16.97
2022-08-31T22:36:34.488Z,16.91
2022-08-31T22:39:05.234Z,16.90
2022-08-31T22:41:33.055Z,16.92
2022-08-31T22:44:00.626Z,16.99
2022-08-31T22:46:28.328Z,16.95
2022-08-31T22:48:55.131Z,16.90
2022-08-31T22:51:22.381Z,16.86
2022-08-31T22:53:51.499Z,16.84
2022-08-31T22:56:20.550Z,16.88
2022-08-31T22:58:47.375Z,16.88
2022-08-31T23:01:27.356Z,16.84
2022-08-31T23:03:56.944Z,16.87
2022-08-31T23:06:24.895Z,16.89
2022-08-31T23:08:53.122Z,16.80
2022-08-31T23:11:21.930Z,16.83
2022-08-31T23:13:53.746Z,16.84
2022-08-31T23:16:24.932Z,16.82
2022-08-31T23:19:00.840Z,16.78
2022-08-31T23:21:31.014Z,16.88
2022-08-31T23:23:59.697Z,16.82
2022-08-31T23:26:28.095Z,16.87
2022-08-31T23:28:59.312Z,16.86
2022-08-31T23:31:27.519Z,16.76
2022-08-31T23:33:54.311Z,16.88
2022-08-31T23:36:26.015Z,16.87
2022-08-31T23:38:54.988Z,16.84
2022-08-31T23:41:26.062Z,16.91
2022-08-31T23:43:53.802Z,16.88
2022-08-31T23:46:22.019Z,16.73
2022-08-31T23:48:48.565Z,16.68
2022-08-31T23:51:15.673Z,16.65
2022-08-31T23:53:45.927Z,16.68
2022-08-31T23:56:12.968Z,16.68
2022-08-31T23:58:40.228Z,16.70
